Time;durP1;ratioP1;P1;durP2;ratioP2;P2;SDS_P1;SDS_P2;PMS_P1;PMS_P2;Temp;Humidity;BMP_temperature;BMP_pressure;BME280_temperature;BME280_humidity;BME280_pressure;Samples;Min_cycle;Max_cycle;Signal;HPM_P1;HPM_P2
2022/03/13 00:00:07;;;;;;;6.95;2.10;;;;;;;;;;6065283;23;20869;-47
2022/03/13 00:02:32;;;;;;;11.20;2.63;;;;;;;;;;6063983;23;20018;-48
2022/03/13 00:04:57;;;;;;;5.55;2.65;;;;;;;;;;6064623;23;20015;-50
2022/03/13 00:07:24;;;;;;;13.02;3.95;;;;;;;;;;6065215;23;20018;-50
2022/03/13 00:09:49;;;;;;;7.53;2.28;;;;;;;;;;6063741;23;20030;-49
2022/03/13 00:12:15;;;;;;;17.05;3.40;;;;;;;;;;6065042;23;20034;-52
2022/03/13 00:14:43;;;;;;;6.00;3.33;;;;;;;;;;6064569;23;20439;-50
2022/03/13 00:17:11;;;;;;;8.30;2.55;;;;;;;;;;6064759;23;20460;-50
2022/03/13 00:19:36;;;;;;;5.65;2.80;;;;;;;;;;6064382;23;20022;-49
2022/03/13 00:22:01;;;;;;;9.25;3.00;;;;;;;;;;6063538;23;20019;-47
2022/03/13 00:24:27;;;;;;;9.93;3.50;;;;;;;;;;6064675;23;20011;-48
2022/03/13 00:26:52;;;;;;;11.90;3.85;;;;;;;;;;6064301;23;20014;-49
2022/03/13 00:29:18;;;;;;;16.65;3.47;;;;;;;;;;6064694;23;20023;-49
2022/03/13 00:31:43;;;;;;;16.02;4.57;;;;;;;;;;6063488;23;20019;-47
2022/03/13 00:34:09;;;;;;;8.93;3.45;;;;;;;;;;6065179;23;20023;-46
2022/03/13 00:36:34;;;;;;;11.75;5.18;;;;;;;;;;6062908;23;20019;-48
2022/03/13 00:38:59;;;;;;;13.60;4.13;;;;;;;;;;6064579;23;20452;-49
2022/03/13 00:41:25;;;;;;;13.07;4.78;;;;;;;;;;6063721;23;20019;-51
2022/03/13 00:43:50;;;;;;;13.90;4.40;;;;;;;;;;6065245;23;20023;-49
2022/03/13 00:46:15;;;;;;;10.85;4.45;;;;;;;;;;6062190;23;20052;-47
2022/03/13 00:48:41;;;;;;;8.32;4.18;;;;;;;;;;6064024;23;20018;-49
2022/03/13 00:51:06;;;;;;;7.00;4.45;;;;;;;;;;6064115;23;20059;-52
2022/03/13 00:53:31;;;;;;;10.68;3.80;;;;;;;;;;6064206;23;20019;-51
2022/03/13 00:55:57;;;;;;;7.22;3.88;;;;;;;;;;6064703;23;20010;-50
2022/03/13 00:58:22;;;;;;;9.20;3.83;;;;;;;;;;6064350;23;20524;-49
2022/03/13 01:00:47;;;;;;;13.20;3.83;;;;;;;;;;6067495;23;20011;-49
2022/03/13 01:03:30;;;;;;;7.70;3.47;;;;;;;;;;6066386;23;20011;-46
2022/03/13 01:05:55;;;;;;;6.50;3.40;;;;;;;;;;6066155;23;20093;-48
2022/03/13 01:08:21;;;;;;;5.47;3.45;;;;;;;;;;6065810;23;20211;-52
2022/03/13 01:10:50;;;;;;;6.47;2.78;;;;;;;;;;6066424;23;20565;-50
2022/03/13 01:13:15;;;;;;;9.23;3.40;;;;;;;;;;6065219;23;20061;-48
2022/03/13 01:15:42;;;;;;;13.32;5.00;;;;;;;;;;6066953;23;20047;-51
2022/03/13 01:18:07;;;;;;;13.35;4.25;;;;;;;;;;6066822;23;20074;-50
2022/03/13 01:20:32;;;;;;;6.45;4.10;;;;;;;;;;6065087;23;20019;-51
2022/03/13 01:22:57;;;;;;;6.85;4.28;;;;;;;;;;6066654;23;20046;-48
2022/03/13 01:25:23;;;;;;;14.88;4.90;;;;;;;;;;6065661;23;20022;-46
2022/03/13 01:27:48;;;;;;;8.95;4.43;;;;;;;;;;6067759;23;20007;-47
2022/03/13 01:30:14;;;;;;;9.23;4.57;;;;;;;;;;6064095;23;20736;-49
2022/03/13 01:32:39;;;;;;;9.80;4.00;;;;;;;;;;6066411;23;20063;-48
2022/03/13 01:35:04;;;;;;;10.43;3.47;;;;;;;;;;6065319;23;20011;-49
2022/03/13 01:37:41;;;;;;;8.32;3.83;;;;;;;;;;6066922;23;20199;-47
2022/03/13 01:40:08;;;;;;;8.88;3.92;;;;;;;;;;6064582;23;20011;-49
2022/03/13 01:42:33;;;;;;;6.78;3.33;;;;;;;;;;6066267;23;20034;-49
2022/03/13 01:44:59;;;;;;;4.53;2.78;;;;;;;;;;6064651;23;20011;-50
2022/03/13 01:47:25;;;;;;;3.90;2.90;;;;;;;;;;6065390;23;20635;-49
2022/03/13 01:49:51;;;;;;;11.15;2.80;;;;;;;;;;6064466;23;20022;-52
2022/03/13 01:52:20;;;;;;;5.22;2.40;;;;;;;;;;6066400;23;20065;-47
2022/03/13 01:54:47;;;;;;;8.65;2.38;;;;;;;;;;6064806;23;20026;-51
2022/03/13 01:57:17;;;;;;;4.80;1.25;;;;;;;;;;6064503;23;20067;-49
2022/03/13 01:59:43;;;;;;;3.75;1.58;;;;;;;;;;6064740;23;20019;-49
2022/03/13 02:02:08;;;;;;;4.00;1.42;;;;;;;;;;6066140;23;20018;-47
2022/03/13 02:04:34;;;;;;;6.00;2.13;;;;;;;;;;6065296;23;20011;-49
2022/03/13 02:06:59;;;;;;;4.80;2.38;;;;;;;;;;6065705;23;20015;-49
2022/03/13 02:09:25;;;;;;;3.10;2.30;;;;;;;;;;6065951;23;20034;-51
2022/03/13 02:11:51;;;;;;;13.27;4.20;;;;;;;;;;6065146;23;20019;-49
2022/03/13 02:14:20;;;;;;;4.85;2.53;;;;;;;;;;6065622;23;20022;-49
2022/03/13 02:16:45;;;;;;;5.15;2.60;;;;;;;;;;6066141;23;20022;-49
2022/03/13 02:19:10;;;;;;;9.02;3.13;;;;;;;;;;6066090;23;20030;-49
2022/03/13 02:21:45;;;;;;;7.40;3.25;;;;;;;;;;6062397;23;20015;-51
2022/03/13 02:24:15;;;;;;;4.10;2.83;;;;;;;;;;6065199;23;20042;-48
2022/03/13 02:26:42;;;;;;;5.47;2.65;;;;;;;;;;6065716;23;20011;-47
2022/03/13 02:29:10;;;;;;;5.72;3.17;;;;;;;;;;6065638;23;20025;-49
2022/03/13 02:31:37;;;;;;;4.78;2.90;;;;;;;;;;6066598;23;20852;-49
2022/03/13 02:34:03;;;;;;;4.10;2.22;;;;;;;;;;6062861;23;20063;-49
2022/03/13 02:36:39;;;;;;;11.52;3.20;;;;;;;;;;6066828;23;20033;-48
2022/03/13 02:39:06;;;;;;;2.90;2.00;;;;;;;;;;6066366;23;20018;-49
2022/03/13 02:41:32;;;;;;;1.63;1.10;;;;;;;;;;6066031;23;20015;-49
2022/03/13 02:43:58;;;;;;;3.40;1.52;;;;;;;;;;6065779;23;20026;-48
2022/03/13 02:46:24;;;;;;;4.57;1.20;;;;;;;;;;6065522;23;20007;-50
2022/03/13 02:51:25;;;;;;;1.02;0.73;;;;;;;;;;6033170;23;20059;-44
2022/03/13 02:53:50;;;;;;;2.90;0.95;;;;;;;;;;6056303;23;20059;-46
2022/03/13 02:56:15;;;;;;;1.80;0.77;;;;;;;;;;6064640;23;20022;-45
2022/03/13 02:58:40;;;;;;;2.72;0.95;;;;;;;;;;6065943;23;20451;-43
2022/03/13 03:01:06;;;;;;;1.50;0.90;;;;;;;;;;6065069;23;20026;-44
2022/03/13 03:03:31;;;;;;;1.13;0.50;;;;;;;;;;6066428;23;20011;-43
2022/03/13 03:05:56;;;;;;;1.50;0.70;;;;;;;;;;6066465;23;20057;-43
2022/03/13 03:08:22;;;;;;;1.65;0.60;;;;;;;;;;6066084;23;20045;-44
2022/03/13 03:10:47;;;;;;;1.88;0.63;;;;;;;;;;6065917;23;20014;-43
2022/03/13 03:13:13;;;;;;;3.38;0.70;;;;;;;;;;6063900;23;20046;-48
2022/03/13 03:15:39;;;;;;;1.27;0.80;;;;;;;;;;6066355;23;20011;-44
2022/03/13 03:18:05;;;;;;;0.80;0.80;;;;;;;;;;6064706;23;20022;-42
2022/03/13 03:20:31;;;;;;;1.05;0.60;;;;;;;;;;6066364;23;20033;-44
2022/03/13 03:22:56;;;;;;;2.60;0.63;;;;;;;;;;6064626;23;20074;-43
2022/03/13 03:25:23;;;;;;;2.63;0.73;;;;;;;;;;6065069;23;20019;-43
2022/03/13 03:27:49;;;;;;;1.75;0.90;;;;;;;;;;6066176;23;20058;-43
2022/03/13 03:30:17;;;;;;;3.33;1.08;;;;;;;;;;6064291;23;20019;-44
2022/03/13 03:32:43;;;;;;;1.52;0.90;;;;;;;;;;6066079;23;20015;-42
2022/03/13 03:35:08;;;;;;;1.90;1.30;;;;;;;;;;6064690;23;20011;-43
2022/03/13 03:37:34;;;;;;;2.38;1.10;;;;;;;;;;6065717;23;20074;-44
2022/03/13 03:39:59;;;;;;;4.65;1.20;;;;;;;;;;6063900;23;20356;-44
2022/03/13 03:42:24;;;;;;;1.48;1.15;;;;;;;;;;6040031;23;20611;-43
2022/03/13 03:44:49;;;;;;;6.05;1.50;;;;;;;;;;6064629;23;20007;-43
2022/03/13 03:47:15;;;;;;;3.25;1.30;;;;;;;;;;6063986;23;20022;-44
2022/03/13 03:49:40;;;;;;;10.88;1.67;;;;;;;;;;6066674;23;20007;-43
2022/03/13 03:52:06;;;;;;;3.65;1.55;;;;;;;;;;6095018;23;20025;-45
2022/03/13 03:54:31;;;;;;;4.97;1.73;;;;;;;;;;6093142;23;20022;-42
2022/03/13 03:56:57;;;;;;;2.13;1.48;;;;;;;;;;6086581;23;20019;-43
2022/03/13 03:59:23;;;;;;;4.47;1.98;;;;;;;;;;6094428;23;20030;-44
2022/03/13 04:01:49;;;;;;;2.15;1.65;;;;;;;;;;6095185;23;20054;-42
2022/03/13 04:04:14;;;;;;;3.15;1.80;;;;;;;;;;6093037;23;20378;-43
2022/03/13 04:06:40;;;;;;;3.65;2.08;;;;;;;;;;6094525;23;20775;-44
2022/03/13 04:09:09;;;;;;;2.90;2.13;;;;;;;;;;6095800;23;20018;-44
2022/03/13 04:11:35;;;;;;;4.10;2.33;;;;;;;;;;6092041;23;20058;-43
2022/03/13 04:14:00;;;;;;;4.90;2.47;;;;;;;;;;6094359;23;20022;-44
2022/03/13 04:16:26;;;;;;;3.17;2.75;;;;;;;;;;6091587;23;20030;-42
2022/03/13 04:18:51;;;;;;;5.10;2.30;;;;;;;;;;6094532;23;20026;-42
2022/03/13 04:21:16;;;;;;;5.00;2.67;;;;;;;;;;6093110;23;20108;-42
2022/03/13 04:23:41;;;;;;;4.28;2.47;;;;;;;;;;6094723;23;20018;-43
2022/03/13 04:26:07;;;;;;;4.93;3.03;;;;;;;;;;6093605;23;20007;-43
2022/03/13 04:28:33;;;;;;;2.35;2.10;;;;;;;;;;6094243;23;21670;-44
2022/03/13 04:31:00;;;;;;;5.25;2.30;;;;;;;;;;6095296;23;20022;-44
2022/03/13 04:33:28;;;;;;;4.15;2.80;;;;;;;;;;6090998;23;20014;-44
2022/03/13 04:35:57;;;;;;;5.93;2.75;;;;;;;;;;6095930;23;20013;-43
2022/03/13 04:38:23;;;;;;;4.53;2.58;;;;;;;;;;6095834;23;20029;-43
2022/03/13 04:40:51;;;;;;;5.13;2.42;;;;;;;;;;6096621;23;20011;-44
2022/03/13 04:43:16;;;;;;;4.32;3.47;;;;;;;;;;6096159;23;20024;-46
2022/03/13 04:45:41;;;;;;;3.28;2.33;;;;;;;;;;6095861;23;20010;-44
2022/03/13 04:48:06;;;;;;;3.25;1.88;;;;;;;;;;6096201;23;20015;-44
2022/03/13 04:50:32;;;;;;;2.40;1.92;;;;;;;;;;6095476;23;20077;-43
2022/03/13 04:52:57;;;;;;;2.10;1.77;;;;;;;;;;6096672;23;20049;-42
2022/03/13 04:55:22;;;;;;;1.35;1.20;;;;;;;;;;6096536;23;20098;-43
2022/03/13 04:57:47;;;;;;;5.05;1.90;;;;;;;;;;6096432;23;20499;-44
2022/03/13 05:00:13;;;;;;;1.70;1.60;;;;;;;;;;6095099;23;20014;-49
2022/03/13 05:02:38;;;;;;;3.22;1.67;;;;;;;;;;6087030;23;20536;-43
2022/03/13 05:05:04;;;;;;;1.65;1.55;;;;;;;;;;6090480;23;20021;-44
2022/03/13 05:07:30;;;;;;;3.55;2.13;;;;;;;;;;6089896;23;20110;-43
2022/03/13 05:09:55;;;;;;;3.95;1.80;;;;;;;;;;6096994;23;20006;-46
2022/03/13 05:12:27;;;;;;;5.78;2.15;;;;;;;;;;6094976;23;20056;-43
2022/03/13 05:14:52;;;;;;;6.38;2.90;;;;;;;;;;6096514;23;20025;-42
2022/03/13 05:17:17;;;;;;;7.15;3.03;;;;;;;;;;6095192;23;20014;-43
2022/03/13 05:19:44;;;;;;;3.72;2.83;;;;;;;;;;6097014;23;20615;-42
2022/03/13 05:22:09;;;;;;;3.83;2.80;;;;;;;;;;6095741;23;20018;-42
2022/03/13 05:24:34;;;;;;;5.72;2.83;;;;;;;;;;6096291;23;20066;-42
2022/03/13 05:27:00;;;;;;;2.83;2.20;;;;;;;;;;6092831;23;20014;-43
2022/03/13 05:29:25;;;;;;;7.13;4.32;;;;;;;;;;6096541;23;20062;-44
2022/03/13 05:31:50;;;;;;;3.72;3.33;;;;;;;;;;6094090;23;20018;-43
2022/03/13 05:34:15;;;;;;;7.18;3.60;;;;;;;;;;6090978;23;20011;-42
2022/03/13 05:36:41;;;;;;;5.00;3.53;;;;;;;;;;6089650;23;20043;-45
2022/03/13 05:39:06;;;;;;;5.38;3.47;;;;;;;;;;6089255;23;20175;-44
2022/03/13 05:41:33;;;;;;;9.50;3.80;;;;;;;;;;6091221;23;20023;-43
2022/03/13 05:43:58;;;;;;;7.13;3.70;;;;;;;;;;6094432;23;20538;-46
2022/03/13 05:46:23;;;;;;;5.35;3.53;;;;;;;;;;6092362;23;20018;-44
2022/03/13 05:48:48;;;;;;;5.97;3.78;;;;;;;;;;6093473;23;20034;-42
2022/03/13 05:51:14;;;;;;;5.97;3.78;;;;;;;;;;6086785;23;20025;-46
2022/03/13 05:53:39;;;;;;;5.82;3.40;;;;;;;;;;6090885;23;20058;-44
2022/03/13 05:56:04;;;;;;;16.67;4.25;;;;;;;;;;6092222;23;20116;-44
2022/03/13 05:58:30;;;;;;;5.78;3.05;;;;;;;;;;6090493;23;20534;-44
2022/03/13 06:01:05;;;;;;;11.57;3.88;;;;;;;;;;6092115;23;20074;-47
2022/03/13 06:03:30;;;;;;;5.95;3.80;;;;;;;;;;6091884;23;20014;-45
2022/03/13 06:05:57;;;;;;;7.25;3.67;;;;;;;;;;6093081;23;20025;-43
2022/03/13 06:08:22;;;;;;;14.82;3.35;;;;;;;;;;6091687;23;20011;-45
2022/03/13 06:10:48;;;;;;;7.13;3.97;;;;;;;;;;6094995;23;20038;-45
2022/03/13 06:13:13;;;;;;;10.52;3.85;;;;;;;;;;6093698;23;20076;-44
2022/03/13 06:15:38;;;;;;;8.27;4.03;;;;;;;;;;6095040;23;20383;-44
2022/03/13 06:18:04;;;;;;;9.25;3.67;;;;;;;;;;6094603;23;20029;-45
2022/03/13 06:20:29;;;;;;;5.35;3.15;;;;;;;;;;6095497;23;20053;-45
2022/03/13 06:22:54;;;;;;;11.57;4.00;;;;;;;;;;6094488;23;20003;-44
2022/03/13 06:25:20;;;;;;;12.20;4.07;;;;;;;;;;6094710;23;20419;-45
2022/03/13 06:27:45;;;;;;;13.18;5.47;;;;;;;;;;6095067;23;20003;-44
2022/03/13 06:30:16;;;;;;;9.07;3.90;;;;;;;;;;6095742;23;20019;-44
2022/03/13 06:32:45;;;;;;;9.63;3.13;;;;;;;;;;6094354;23;20010;-43
2022/03/13 06:35:11;;;;;;;8.02;4.63;;;;;;;;;;6096196;23;20038;-46
2022/03/13 06:37:39;;;;;;;9.50;3.60;;;;;;;;;;6094296;23;20014;-45
2022/03/13 06:40:06;;;;;;;10.73;3.78;;;;;;;;;;6095227;23;20021;-44
2022/03/13 06:42:31;;;;;;;8.20;3.72;;;;;;;;;;6091914;23;20019;-45
2022/03/13 06:44:57;;;;;;;14.02;3.75;;;;;;;;;;6095391;23;20021;-44
2022/03/13 06:47:22;;;;;;;12.43;4.70;;;;;;;;;;6093457;23;20021;-44
2022/03/13 06:49:47;;;;;;;10.05;4.30;;;;;;;;;;6095593;23;20017;-45
2022/03/13 06:52:13;;;;;;;16.40;4.45;;;;;;;;;;6092204;23;20451;-45
2022/03/13 06:54:38;;;;;;;16.65;4.50;;;;;;;;;;6117246;23;20062;-46
2022/03/13 06:57:04;;;;;;;16.95;4.95;;;;;;;;;;6092054;23;20025;-45
2022/03/13 06:59:29;;;;;;;11.77;4.68;;;;;;;;;;6095344;23;20713;-43
2022/03/13 07:01:55;;;;;;;16.73;4.82;;;;;;;;;;6094072;23;20021;-44
2022/03/13 07:04:20;;;;;;;11.27;3.47;;;;;;;;;;6093427;23;20010;-46
2022/03/13 07:06:45;;;;;;;16.70;4.97;;;;;;;;;;6094625;23;20013;-44
2022/03/13 07:09:11;;;;;;;11.93;4.53;;;;;;;;;;6093886;23;20475;-43
2022/03/13 07:11:36;;;;;;;13.63;3.80;;;;;;;;;;6094638;23;20003;-48
2022/03/13 07:14:03;;;;;;;13.18;4.72;;;;;;;;;;6093992;23;20019;-44
2022/03/13 07:16:28;;;;;;;18.38;3.83;;;;;;;;;;6093354;23;20018;-44
2022/03/13 07:18:53;;;;;;;24.15;4.25;;;;;;;;;;6092633;23;20069;-47
2022/03/13 07:21:18;;;;;;;24.30;4.78;;;;;;;;;;6093833;23;20037;-47
2022/03/13 07:23:44;;;;;;;15.50;4.25;;;;;;;;;;6094333;23;20021;-47
2022/03/13 07:26:10;;;;;;;17.60;4.65;;;;;;;;;;6094059;23;20022;-43
2022/03/13 07:28:36;;;;;;;15.95;3.90;;;;;;;;;;6093912;23;20680;-43
2022/03/13 07:31:01;;;;;;;22.13;5.20;;;;;;;;;;6093948;23;20022;-44
2022/03/13 07:33:26;;;;;;;16.85;4.10;;;;;;;;;;6093914;23;20010;-44
2022/03/13 07:35:51;;;;;;;9.00;3.75;;;;;;;;;;6094642;23;20014;-45
2022/03/13 07:38:17;;;;;;;12.20;3.88;;;;;;;;;;6089875;23;20099;-45
2022/03/13 07:40:44;;;;;;;19.38;4.13;;;;;;;;;;6092302;23;20014;-44
2022/03/13 07:43:10;;;;;;;13.60;4.35;;;;;;;;;;6093808;23;20018;-43
2022/03/13 07:45:35;;;;;;;16.67;3.35;;;;;;;;;;6093151;23;20010;-45
2022/03/13 07:48:00;;;;;;;23.00;6.40;;;;;;;;;;6092577;23;20018;-46
2022/03/13 07:50:26;;;;;;;18.10;5.20;;;;;;;;;;6094799;23;20038;-45
2022/03/13 07:52:52;;;;;;;16.70;3.85;;;;;;;;;;6093601;23;20084;-44
2022/03/13 07:55:17;;;;;;;24.10;4.65;;;;;;;;;;6094826;23;20026;-44
2022/03/13 07:57:43;;;;;;;13.75;4.10;;;;;;;;;;6092322;23;20085;-43
2022/03/13 08:00:10;;;;;;;13.73;4.13;;;;;;;;;;6095108;23;20017;-46
2022/03/13 08:02:36;;;;;;;22.38;5.05;;;;;;;;;;6093966;23;20054;-44
2022/03/13 08:05:01;;;;;;;16.15;4.47;;;;;;;;;;6094420;23;20023;-43
2022/03/13 08:07:27;;;;;;;18.77;5.32;;;;;;;;;;6093499;23;20014;-45
2022/03/13 08:09:52;;;;;;;25.42;4.88;;;;;;;;;;6092986;23;20097;-44
2022/03/13 08:12:18;;;;;;;16.40;4.30;;;;;;;;;;6094000;23;20014;-44
2022/03/13 08:14:43;;;;;;;13.27;3.67;;;;;;;;;;6090468;23;20309;-46
2022/03/13 08:17:08;;;;;;;12.15;5.28;;;;;;;;;;6094386;23;20014;-45
2022/03/13 08:19:34;;;;;;;18.92;4.68;;;;;;;;;;6090617;23;20014;-44
2022/03/13 08:21:59;;;;;;;20.20;4.93;;;;;;;;;;6094186;23;20464;-46
2022/03/13 08:24:24;;;;;;;13.93;4.07;;;;;;;;;;6092816;23;20198;-44
2022/03/13 08:26:50;;;;;;;15.68;4.95;;;;;;;;;;6092838;23;20018;-45
2022/03/13 08:29:15;;;;;;;15.95;4.45;;;;;;;;;;6094638;23;20007;-44
2022/03/13 08:31:40;;;;;;;26.17;5.15;;;;;;;;;;6093223;23;20014;-43
2022/03/13 08:34:10;;;;;;;28.58;5.10;;;;;;;;;;6093666;23;20030;-44
2022/03/13 08:36:38;;;;;;;24.15;4.30;;;;;;;;;;6092366;23;20037;-43
2022/03/13 08:39:04;;;;;;;33.08;5.03;;;;;;;;;;6093625;23;20018;-44
2022/03/13 08:41:29;;;;;;;14.73;3.38;;;;;;;;;;6092736;23;20484;-44
2022/03/13 08:43:54;;;;;;;17.42;3.92;;;;;;;;;;6094305;23;20017;-44
2022/03/13 08:46:20;;;;;;;25.20;5.00;;;;;;;;;;6091114;23;20074;-45
2022/03/13 08:48:45;;;;;;;21.35;4.47;;;;;;;;;;6094874;23;20011;-44
2022/03/13 08:51:13;;;;;;;21.50;4.88;;;;;;;;;;6092864;23;20023;-45
2022/03/13 08:53:38;;;;;;;19.42;4.78;;;;;;;;;;6093694;23;20042;-47
2022/03/13 08:56:04;;;;;;;23.25;5.68;;;;;;;;;;6091242;23;20042;-44
2022/03/13 08:58:29;;;;;;;19.55;6.40;;;;;;;;;;6094814;23;20018;-45
2022/03/13 09:00:54;;;;;;;29.30;6.38;;;;;;;;;;6092799;23;20010;-47
2022/03/13 09:03:20;;;;;;;20.65;4.68;;;;;;;;;;6094511;23;20027;-44
2022/03/13 09:05:48;;;;;;;16.75;3.72;;;;;;;;;;6094214;23;20058;-44
2022/03/13 09:08:13;;;;;;;18.98;5.00;;;;;;;;;;6091430;23;20018;-43
2022/03/13 09:10:39;;;;;;;22.30;4.38;;;;;;;;;;6094699;23;20018;-46
2022/03/13 09:13:04;;;;;;;20.40;4.00;;;;;;;;;;6090948;23;20018;-44
2022/03/13 09:15:29;;;;;;;22.48;3.97;;;;;;;;;;6094404;23;20019;-45
2022/03/13 09:17:54;;;;;;;12.57;5.25;;;;;;;;;;6091988;23;20010;-43
2022/03/13 09:20:23;;;;;;;17.40;5.00;;;;;;;;;;6093422;23;20168;-44
2022/03/13 09:22:49;;;;;;;16.05;4.22;;;;;;;;;;6094278;23;20025;-45
2022/03/13 09:25:14;;;;;;;25.40;4.72;;;;;;;;;;6095416;23;20015;-44
2022/03/13 09:27:40;;;;;;;18.92;4.05;;;;;;;;;;6094337;23;20026;-44
2022/03/13 09:30:05;;;;;;;17.83;4.15;;;;;;;;;;6093732;23;20018;-44
2022/03/13 09:32:31;;;;;;;24.83;3.53;;;;;;;;;;6094175;23;20391;-45
2022/03/13 09:34:56;;;;;;;29.75;6.40;;;;;;;;;;6095670;23;20019;-44
2022/03/13 09:37:23;;;;;;;16.60;4.63;;;;;;;;;;6093213;23;20029;-44
2022/03/13 09:39:48;;;;;;;14.65;4.50;;;;;;;;;;6095378;23;20021;-46
2022/03/13 09:42:14;;;;;;;17.23;4.18;;;;;;;;;;6093768;23;20014;-45
2022/03/13 09:44:39;;;;;;;12.77;3.10;;;;;;;;;;6095717;23;20831;-47
2022/03/13 09:47:05;;;;;;;17.73;3.53;;;;;;;;;;6093443;23;20022;-45
2022/03/13 09:49:31;;;;;;;17.83;4.78;;;;;;;;;;6094600;23;20021;-43
2022/03/13 09:51:56;;;;;;;12.82;2.92;;;;;;;;;;6093743;23;20015;-45
2022/03/13 09:54:22;;;;;;;23.10;4.93;;;;;;;;;;6094236;23;20028;-45
2022/03/13 09:56:47;;;;;;;12.45;2.95;;;;;;;;;;6095269;23;20011;-46
2022/03/13 09:59:13;;;;;;;14.73;3.60;;;;;;;;;;6093940;23;20022;-45
2022/03/13 10:01:39;;;;;;;26.63;4.63;;;;;;;;;;6093849;23;20033;-44
2022/03/13 10:04:04;;;;;;;10.80;3.42;;;;;;;;;;6094470;23;20014;-44
2022/03/13 10:06:30;;;;;;;15.52;3.35;;;;;;;;;;6093162;23;20048;-45
2022/03/13 10:08:55;;;;;;;17.52;3.63;;;;;;;;;;6094720;23;20014;-45
2022/03/13 10:11:33;;;;;;;18.13;3.70;;;;;;;;;;6081759;23;20503;-44
2022/03/13 10:14:05;;;;;;;17.45;3.72;;;;;;;;;;6094651;23;20025;-48
2022/03/13 10:16:35;;;;;;;13.57;5.03;;;;;;;;;;6092645;23;20015;-46
2022/03/13 10:19:16;;;;;;;12.73;4.15;;;;;;;;;;6095005;23;20030;-44
2022/03/13 10:22:02;;;;;;;8.23;3.22;;;;;;;;;;6092021;23;20010;-47
2022/03/13 10:24:27;;;;;;;20.63;3.85;;;;;;;;;;6093655;23;20022;-46
2022/03/13 10:27:08;;;;;;;16.88;4.72;;;;;;;;;;6096366;23;20021;-46
2022/03/13 10:29:33;;;;;;;15.85;5.18;;;;;;;;;;6094709;23;20317;-46
2022/03/13 10:31:59;;;;;;;18.65;4.30;;;;;;;;;;6094420;23;20024;-49
2022/03/13 10:34:26;;;;;;;15.20;3.08;;;;;;;;;;6090313;23;20011;-46
2022/03/13 10:36:52;;;;;;;15.32;3.58;;;;;;;;;;6095312;23;20092;-46
2022/03/13 10:39:18;;;;;;;22.58;6.07;;;;;;;;;;6095427;23;20050;-47
2022/03/13 10:41:44;;;;;;;9.23;2.55;;;;;;;;;;6093319;23;20014;-47
2022/03/13 10:44:16;;;;;;;7.63;4.07;;;;;;;;;;6094809;23;20759;-49
2022/03/13 10:46:42;;;;;;;10.43;3.05;;;;;;;;;;6088771;23;20010;-46
2022/03/13 10:49:09;;;;;;;11.88;3.30;;;;;;;;;;6091716;23;20014;-47
2022/03/13 10:51:40;;;;;;;12.18;3.10;;;;;;;;;;6090545;23;20047;-48
2022/03/13 10:54:06;;;;;;;11.25;3.03;;;;;;;;;;6093898;23;20022;-47
2022/03/13 10:56:31;;;;;;;18.40;3.15;;;;;;;;;;6091502;23;20212;-46
2022/03/13 10:58:58;;;;;;;17.42;3.35;;;;;;;;;;6093219;23;20852;-45
2022/03/13 11:01:25;;;;;;;13.35;3.28;;;;;;;;;;6094978;23;20041;-47
2022/03/13 11:03:59;;;;;;;16.05;4.50;;;;;;;;;;6094120;23;20345;-46
2022/03/13 11:06:25;;;;;;;10.85;2.85;;;;;;;;;;6093856;23;20015;-47
2022/03/13 11:08:53;;;;;;;11.35;3.13;;;;;;;;;;6095640;23;20074;-46
2022/03/13 11:11:19;;;;;;;21.38;3.90;;;;;;;;;;6092581;23;20018;-44
2022/03/13 11:13:47;;;;;;;15.90;3.90;;;;;;;;;;6094207;23;20577;-46
2022/03/13 11:16:17;;;;;;;18.15;3.10;;;;;;;;;;6092443;23;20042;-49
2022/03/13 11:18:45;;;;;;;18.08;3.10;;;;;;;;;;6093959;23;20019;-48
2022/03/13 11:21:10;;;;;;;8.55;2.45;;;;;;;;;;6093341;23;20026;-46
2022/03/13 11:23:36;;;;;;;13.30;2.75;;;;;;;;;;6092524;23;20006;-45
2022/03/13 11:26:03;;;;;;;11.48;2.95;;;;;;;;;;6092342;23;20018;-50
2022/03/13 11:28:29;;;;;;;18.25;3.58;;;;;;;;;;6094012;23;20073;-49
2022/03/13 11:30:55;;;;;;;11.93;2.60;;;;;;;;;;6092843;23;20014;-47
2022/03/13 11:33:44;;;;;;;3.83;2.00;;;;;;;;;;6093964;23;20014;-46
2022/03/13 11:36:31;;;;;;;10.40;2.47;;;;;;;;;;6094907;23;20014;-48
2022/03/13 11:38:58;;;;;;;13.45;3.10;;;;;;;;;;6091977;23;20029;-46
2022/03/13 11:41:37;;;;;;;16.02;5.97;;;;;;;;;;6092131;23;20113;-47
2022/03/13 11:44:28;;;;;;;11.70;2.53;;;;;;;;;;6091295;23;20514;-45
2022/03/13 11:46:54;;;;;;;19.65;4.43;;;;;;;;;;6092537;23;20070;-47
2022/03/13 11:49:21;;;;;;;11.00;2.85;;;;;;;;;;6093832;23;20018;-46
2022/03/13 11:51:46;;;;;;;9.13;1.95;;;;;;;;;;6093981;23;20042;-46
2022/03/13 11:54:16;;;;;;;14.48;2.95;;;;;;;;;;6093503;23;20732;-47
2022/03/13 11:56:48;;;;;;;7.75;2.42;;;;;;;;;;6094328;23;20018;-45
2022/03/13 11:59:24;;;;;;;15.93;3.30;;;;;;;;;;6093112;23;20027;-46
2022/03/13 12:01:52;;;;;;;15.50;3.70;;;;;;;;;;6094044;23;20023;-46
2022/03/13 12:04:17;;;;;;;12.02;2.75;;;;;;;;;;6093803;23;20018;-48
2022/03/13 12:06:48;;;;;;;12.37;2.67;;;;;;;;;;6093108;23;20025;-46
2022/03/13 12:09:16;;;;;;;11.05;3.28;;;;;;;;;;6092005;23;20241;-47
2022/03/13 12:11:45;;;;;;;10.55;3.65;;;;;;;;;;6091983;23;20476;-47
2022/03/13 12:14:14;;;;;;;15.15;2.95;;;;;;;;;;6092186;23;20006;-46
2022/03/13 12:16:40;;;;;;;5.93;1.98;;;;;;;;;;6092849;23;20066;-47
2022/03/13 12:19:07;;;;;;;8.20;2.58;;;;;;;;;;6092521;23;20030;-46
2022/03/13 12:21:33;;;;;;;9.20;1.92;;;;;;;;;;6093857;23;20074;-45
2022/03/13 12:24:15;;;;;;;10.18;2.58;;;;;;;;;;6092066;23;20018;-49
2022/03/13 12:26:41;;;;;;;11.57;2.70;;;;;;;;;;6092768;23;20034;-46
2022/03/13 12:29:07;;;;;;;15.60;3.28;;;;;;;;;;6092172;23;20029;-47
2022/03/13 12:31:43;;;;;;;11.63;2.60;;;;;;;;;;6093530;23;20054;-46
2022/03/13 12:34:08;;;;;;;11.32;2.25;;;;;;;;;;6092234;23;20015;-46
2022/03/13 12:36:35;;;;;;;8.93;2.03;;;;;;;;;;6092859;23;20030;-46
2022/03/13 12:39:00;;;;;;;12.95;2.40;;;;;;;;;;6092669;23;20554;-47
2022/03/13 12:41:28;;;;;;;17.90;2.92;;;;;;;;;;6093368;23;20007;-46
2022/03/13 12:43:54;;;;;;;10.43;2.55;;;;;;;;;;6092322;23;20014;-46
2022/03/13 12:46:29;;;;;;;17.65;3.47;;;;;;;;;;6094038;23;20018;-44
2022/03/13 12:49:02;;;;;;;13.85;3.75;;;;;;;;;;6092698;23;20062;-45
2022/03/13 12:51:38;;;;;;;12.23;4.57;;;;;;;;;;6092513;23;20065;-45
2022/03/13 12:54:04;;;;;;;16.15;3.58;;;;;;;;;;6093912;23;20026;-44
2022/03/13 12:56:30;;;;;;;9.82;2.30;;;;;;;;;;6093357;23;20014;-44
2022/03/13 12:58:56;;;;;;;13.27;2.80;;;;;;;;;;6094493;23;20030;-45
2022/03/13 13:01:21;;;;;;;13.93;3.38;;;;;;;;;;6095517;23;20014;-44
2022/03/13 13:03:53;;;;;;;15.43;3.20;;;;;;;;;;6095068;23;20046;-46
2022/03/13 13:06:28;;;;;;;17.73;3.55;;;;;;;;;;6091941;23;20486;-46
2022/03/13 13:08:53;;;;;;;18.60;3.42;;;;;;;;;;6096043;23;20018;-46
2022/03/13 13:11:29;;;;;;;13.25;3.22;;;;;;;;;;6094097;23;20018;-48
2022/03/13 13:13:58;;;;;;;7.03;2.80;;;;;;;;;;6095051;23;20169;-46
2022/03/13 13:16:26;;;;;;;12.88;2.97;;;;;;;;;;6093128;23;20022;-45
2022/03/13 13:18:51;;;;;;;12.90;3.63;;;;;;;;;;6096178;23;20026;-45
2022/03/13 13:21:17;;;;;;;12.50;4.20;;;;;;;;;;6093721;23;20003;-46
2022/03/13 13:23:42;;;;;;;8.10;2.80;;;;;;;;;;6096286;23;20065;-46
2022/03/13 13:26:08;;;;;;;23.20;3.92;;;;;;;;;;6094286;23;20482;-46
2022/03/13 13:28:34;;;;;;;7.78;2.65;;;;;;;;;;6094839;23;20043;-44
2022/03/13 13:30:59;;;;;;;18.40;4.80;;;;;;;;;;6092922;23;20022;-46
2022/03/13 13:33:29;;;;;;;15.73;3.10;;;;;;;;;;6095260;23;20014;-46
2022/03/13 13:35:55;;;;;;;16.73;3.00;;;;;;;;;;6093768;23;20015;-45
2022/03/13 13:38:27;;;;;;;10.15;2.60;;;;;;;;;;6095395;23;20034;-46
2022/03/13 13:40:52;;;;;;;11.73;2.83;;;;;;;;;;6095729;23;20642;-45
2022/03/13 13:43:21;;;;;;;15.27;2.97;;;;;;;;;;6093743;23;20529;-47
2022/03/13 13:45:46;;;;;;;5.22;1.88;;;;;;;;;;6093649;23;20022;-47
2022/03/13 13:48:22;;;;;;;7.85;2.30;;;;;;;;;;6095324;23;20574;-46
2022/03/13 13:50:48;;;;;;;17.25;2.47;;;;;;;;;;6094025;23;20055;-46
2022/03/13 13:53:14;;;;;;;13.15;2.08;;;;;;;;;;6095464;23;20034;-46
2022/03/13 13:55:41;;;;;;;6.70;2.20;;;;;;;;;;6095974;23;20003;-45
2022/03/13 13:58:13;;;;;;;10.18;2.08;;;;;;;;;;6093276;23;20014;-45
2022/03/13 14:00:39;;;;;;;9.90;2.65;;;;;;;;;;6090619;23;20386;-47
2022/03/13 14:03:04;;;;;;;10.68;2.55;;;;;;;;;;6095386;23;20018;-45
2022/03/13 14:05:31;;;;;;;17.15;2.75;;;;;;;;;;6093964;23;20854;-45
2022/03/13 14:07:57;;;;;;;10.50;2.10;;;;;;;;;;6094335;23;20002;-46
2022/03/13 14:10:22;;;;;;;10.55;2.25;;;;;;;;;;6095933;23;20073;-46
2022/03/13 14:12:49;;;;;;;8.35;1.70;;;;;;;;;;6091781;23;20607;-45
2022/03/13 14:15:14;;;;;;;9.77;1.83;;;;;;;;;;6094714;23;20014;-47
2022/03/13 14:17:40;;;;;;;4.07;2.00;;;;;;;;;;6091534;23;20066;-46
2022/03/13 14:20:06;;;;;;;9.07;2.20;;;;;;;;;;6093749;23;20033;-44
2022/03/13 14:22:33;;;;;;;15.90;3.03;;;;;;;;;;6093649;23;20087;-46
2022/03/13 14:24:58;;;;;;;6.53;1.73;;;;;;;;;;6095267;23;20025;-47
2022/03/13 14:27:23;;;;;;;16.48;3.10;;;;;;;;;;6093882;23;20018;-46
2022/03/13 14:29:49;;;;;;;11.10;2.10;;;;;;;;;;6095686;23;20017;-44
2022/03/13 14:32:14;;;;;;;13.57;2.03;;;;;;;;;;6092303;23;20015;-48
2022/03/13 14:34:39;;;;;;;10.00;2.25;;;;;;;;;;6096831;23;20093;-46